Time;durP1;ratioP1;P1;durP2;ratioP2;P2;SDS_P1;SDS_P2;PMS_P1;PMS_P2;Temp;Humidity;BMP_temperature;BMP_pressure;BME280_temperature;BME280_humidity;BME280_pressure;Samples;Min_cycle;Max_cycle;Signal;HPM_P1;HPM_P2
2022/09/28 00:01:06;;;;;;;12.18;9.43;;;9.00;99.90;;;;;;5086241;28;21013;-71
2022/09/28 00:03:33;;;;;;;10.30;9.18;;;8.90;99.90;;;;;;5085893;28;20383;-70
2022/09/28 00:06:03;;;;;;;9.95;8.90;;;9.00;99.90;;;;;;5086098;28;20044;-71
2022/09/28 00:08:30;;;;;;;11.77;9.00;;;9.00;99.90;;;;;;5086930;28;20485;-71
2022/09/28 00:10:56;;;;;;;12.73;9.55;;;9.00;99.90;;;;;;5085058;28;20036;-70
2022/09/28 00:13:23;;;;;;;11.25;10.05;;;9.00;99.90;;;;;;5085434;28;20801;-71
2022/09/28 00:16:03;;;;;;;10.88;9.82;;;9.00;99.90;;;;;;5082678;28;20055;-71
2022/09/28 00:18:29;;;;;;;15.27;9.88;;;9.10;99.90;;;;;;5084380;28;20048;-71
2022/09/28 00:21:15;;;;;;;10.23;9.07;;;9.10;99.90;;;;;;5084677;28;20032;-72
2022/09/28 00:26:27;;;;;;;11.57;9.50;;;9.10;99.90;;;;;;5086254;28;20098;-72
2022/09/28 00:28:54;;;;;;;10.75;9.65;;;9.00;99.90;;;;;;5085533;28;20487;-72
2022/09/28 00:31:21;;;;;;;11.73;9.10;;;8.90;99.90;;;;;;5088306;28;20093;-72
2022/09/28 00:33:51;;;;;;;13.55;9.60;;;9.00;99.90;;;;;;5085597;28;20052;-72
2022/09/28 00:36:18;;;;;;;11.77;9.90;;;9.00;99.90;;;;;;5082250;28;20041;-71
2022/09/28 00:38:45;;;;;;;11.30;10.10;;;8.90;99.90;;;;;;5085474;28;20079;-71
2022/09/28 00:41:11;;;;;;;11.60;10.35;;;8.80;99.90;;;;;;5067248;28;20560;-71
2022/09/28 00:43:36;;;;;;;15.65;10.93;;;8.80;99.90;;;;;;5066993;28;20040;-71
2022/09/28 00:46:12;;;;;;;12.55;10.82;;;8.80;99.90;;;;;;5084544;28;20054;-72
2022/09/28 00:48:43;;;;;;;14.70;11.20;;;8.70;99.90;;;;;;5086859;28;20055;-72
2022/09/28 00:51:11;;;;;;;13.85;11.05;;;8.60;99.90;;;;;;5067168;28;20051;-72
2022/09/28 00:53:41;;;;;;;13.10;10.82;;;8.60;99.90;;;;;;5087480;28;20396;-72
2022/09/28 00:56:13;;;;;;;15.68;11.48;;;8.50;99.90;;;;;;5084247;28;20039;-72
2022/09/28 00:58:44;;;;;;;12.68;11.02;;;8.60;99.90;;;;;;5081976;28;20067;-73
2022/09/28 01:01:10;;;;;;;13.02;10.57;;;8.50;99.90;;;;;;5081667;28;20100;-72
2022/09/28 01:03:37;;;;;;;15.15;11.48;;;8.40;99.90;;;;;;5087008;28;20043;-72
2022/09/28 01:06:05;;;;;;;12.45;11.13;;;8.30;99.90;;;;;;5084797;28;20040;-71
2022/09/28 01:08:32;;;;;;;14.75;10.88;;;8.30;99.90;;;;;;5079903;28;20040;-71
2022/09/28 01:10:59;;;;;;;13.63;11.82;;;8.20;99.90;;;;;;5085892;28;20044;-71
2022/09/28 01:13:25;;;;;;;12.70;11.40;;;8.30;99.90;;;;;;5084200;28;20052;-72
2022/09/28 01:16:12;;;;;;;15.77;12.07;;;9.20;99.90;;;;;;5067160;28;20398;-73
2022/09/28 01:19:09;;;;;;;13.85;11.98;;;8.20;99.90;;;;;;5084921;28;20085;-73
2022/09/28 01:22:05;;;;;;;14.05;12.00;;;8.30;99.90;;;;;;5046357;28;20044;-73
2022/09/28 01:24:59;;;;;;;14.35;11.40;;;8.20;99.90;;;;;;5073039;28;22014;-75
2022/09/28 01:27:34;;;;;;;16.20;12.00;;;8.10;99.90;;;;;;5084362;28;20044;-74
2022/09/28 01:30:10;;;;;;;15.48;12.05;;;8.20;99.90;;;;;;5083451;28;20073;-74
2022/09/28 01:33:11;;;;;;;14.20;12.52;;;8.20;99.90;;;;;;5085376;28;20087;-74
2022/09/28 01:36:18;;;;;;;14.07;12.00;;;8.20;99.90;;;;;;5080435;28;20070;-74
2022/09/28 01:39:30;;;;;;;16.63;12.57;;;8.20;99.90;;;;;;5013312;28;20135;-75
2022/09/28 01:42:02;;;;;;;14.15;12.30;;;8.90;99.90;;;;;;5076275;28;20510;-75
2022/09/28 01:44:31;;;;;;;14.30;12.55;;;8.00;99.90;;;;;;5085889;28;20066;-75
2022/09/28 01:47:03;;;;;;;16.45;12.32;;;8.30;99.90;;;;;;5084586;28;20039;-75
2022/09/28 01:49:55;;;;;;;13.38;11.98;;;8.10;99.90;;;;;;5054302;28;20067;-74
2022/09/28 01:52:39;;;;;;;17.10;12.73;;;;;;;;;;5066461;28;20040;-75
2022/09/28 01:55:10;;;;;;;14.05;11.88;;;7.90;99.90;;;;;;5081606;28;20044;-74
2022/09/28 01:57:41;;;;;;;17.48;13.40;;;7.90;99.90;;;;;;5079976;28;20241;-73
2022/09/28 02:00:11;;;;;;;14.80;13.13;;;7.90;99.90;;;;;;5081115;28;20032;-73
2022/09/28 02:02:52;;;;;;;14.70;12.27;;;7.80;99.90;;;;;;5085363;28;20044;-73
2022/09/28 02:05:37;;;;;;;16.60;12.35;;;7.90;99.90;;;;;;5068132;28;20040;-73
2022/09/28 02:08:16;;;;;;;16.42;13.98;;;7.80;99.90;;;;;;5085779;28;20985;-74
2022/09/28 02:10:48;;;;;;;16.35;12.98;;;7.80;99.90;;;;;;5084625;28;20506;-74
2022/09/28 02:13:20;;;;;;;14.75;12.90;;;7.80;99.90;;;;;;5084933;28;20079;-74
2022/09/28 02:16:15;;;;;;;14.82;12.50;;;7.80;99.90;;;;;;5087983;28;20040;-74
2022/09/28 02:18:43;;;;;;;15.27;12.20;;;7.80;99.90;;;;;;5079287;28;20044;-74
2022/09/28 02:21:21;;;;;;;14.85;12.88;;;7.70;99.90;;;;;;5065864;28;20055;-74
2022/09/28 02:23:56;;;;;;;16.10;13.27;;;7.70;99.90;;;;;;5084546;28;20471;-73
2022/09/28 02:26:26;;;;;;;15.93;12.68;;;7.70;99.90;;;;;;5080455;28;20147;-74
2022/09/28 02:28:51;;;;;;;15.05;11.85;;;7.60;99.90;;;;;;5084739;28;20043;-73
2022/09/28 02:31:17;;;;;;;16.95;13.38;;;7.60;99.90;;;;;;5081891;28;20039;-73
2022/09/28 02:33:45;;;;;;;14.73;12.27;;;7.60;99.90;;;;;;5069144;28;20048;-73
2022/09/28 02:36:10;;;;;;;15.88;13.30;;;7.50;99.90;;;;;;5086311;28;20457;-73
2022/09/28 02:38:37;;;;;;;14.32;12.60;;;7.50;99.90;;;;;;5084090;28;20036;-72
2022/09/28 02:41:23;;;;;;;18.58;13.90;;;7.50;99.90;;;;;;5064273;28;20040;-73
2022/09/28 02:43:57;;;;;;;20.35;13.55;;;7.50;99.90;;;;;;5085983;28;20087;-74
2022/09/28 02:46:56;;;;;;;17.50;13.68;;;7.50;99.90;;;;;;5085381;28;20044;-72
2022/09/28 02:49:36;;;;;;;18.05;14.43;;;7.50;99.90;;;;;;5072149;28;20112;-73
2022/09/28 02:52:14;;;;;;;15.52;12.82;;;7.50;99.90;;;;;;5086775;28;20044;-72
2022/09/28 02:55:14;;;;;;;21.20;15.32;;;7.50;99.90;;;;;;5090186;28;20052;-73
2022/09/28 02:58:01;;;;;;;18.98;15.20;;;7.60;99.90;;;;;;5042416;28;20948;-72
2022/09/28 03:00:30;;;;;;;19.33;15.30;;;7.60;99.90;;;;;;5085987;28;20043;-71
2022/09/28 03:03:28;;;;;;;17.80;14.85;;;7.60;99.90;;;;;;5088279;28;20047;-72
2022/09/28 03:06:23;;;;;;;17.30;15.43;;;7.60;99.90;;;;;;5084094;28;20063;-72
2022/09/28 03:09:12;;;;;;;19.08;16.10;;;7.60;99.90;;;;;;5088742;28;20047;-71
2022/09/28 03:11:53;;;;;;;23.95;16.40;;;;;;;;;;5077459;28;20084;-71
2022/09/28 03:14:20;;;;;;;21.33;15.68;;;7.70;99.90;;;;;;5090382;28;20043;-71
2022/09/28 03:16:45;;;;;;;21.77;16.13;;;7.70;99.90;;;;;;5086565;28;20096;-73
2022/09/28 03:19:12;;;;;;;20.17;16.48;;;7.80;99.90;;;;;;5085398;28;20040;-71
2022/09/28 03:21:38;;;;;;;21.60;17.48;;;7.80;99.90;;;;;;5082373;28;20043;-71
2022/09/28 03:24:04;;;;;;;23.20;17.63;;;7.90;99.90;;;;;;5073127;28;20043;-71
2022/09/28 03:26:31;;;;;;;24.40;18.25;;;7.90;99.90;;;;;;5086469;28;20087;-71
2022/09/28 03:28:57;;;;;;;22.60;17.63;;;7.90;99.90;;;;;;5087614;28;20382;-71
2022/09/28 03:31:23;;;;;;;20.63;17.20;;;8.00;99.90;;;;;;5086234;28;20047;-73
2022/09/28 03:33:50;;;;;;;22.40;18.10;;;8.00;99.90;;;;;;5057357;28;20459;-72
2022/09/28 03:36:16;;;;;;;21.55;17.88;;;8.00;99.90;;;;;;5085171;28;20136;-72
2022/09/28 03:38:41;;;;;;;22.58;17.63;;;8.00;99.90;;;;;;5086963;28;20130;-72
2022/09/28 03:41:08;;;;;;;21.75;18.13;;;8.00;99.90;;;;;;5087874;28;20037;-71
2022/09/28 03:43:33;;;;;;;23.10;17.90;;;8.00;99.90;;;;;;5085829;28;20056;-72
2022/09/28 03:46:00;;;;;;;25.25;19.70;;;8.00;99.90;;;;;;5070520;28;20097;-73
2022/09/28 03:48:33;;;;;;;23.27;19.02;;;8.00;99.90;;;;;;5070788;28;20089;-73
2022/09/28 03:51:00;;;;;;;25.15;20.25;;;8.00;99.90;;;;;;5084746;28;20117;-73
2022/09/28 03:53:28;;;;;;;27.95;19.85;;;8.10;99.90;;;;;;5087983;28;20157;-73
2022/09/28 03:55:55;;;;;;;25.05;20.17;;;8.10;99.90;;;;;;5085966;28;20090;-73
2022/09/28 03:58:21;;;;;;;27.13;21.17;;;8.00;99.90;;;;;;5086342;28;20107;-72
2022/09/28 04:00:50;;;;;;;27.92;20.80;;;8.00;99.90;;;;;;5084320;28;20663;-76
2022/09/28 04:03:16;;;;;;;26.70;20.52;;;8.00;99.90;;;;;;5085947;28;20115;-74
2022/09/28 04:05:50;;;;;;;29.88;22.45;;;8.00;99.90;;;;;;5085347;28;20036;-74
2022/09/28 04:08:16;;;;;;;29.27;22.10;;;8.10;99.90;;;;;;5083701;28;20049;-74
2022/09/28 04:10:42;;;;;;;32.47;22.48;;;8.00;99.90;;;;;;5087018;28;20130;-73
2022/09/28 04:13:08;;;;;;;24.83;20.75;;;8.00;99.90;;;;;;5088455;28;20143;-74
2022/09/28 04:15:34;;;;;;;29.80;20.58;;;8.00;99.90;;;;;;5086567;28;20441;-73
2022/09/28 04:17:59;;;;;;;26.55;20.77;;;8.00;99.90;;;;;;5085916;28;20040;-74
2022/09/28 04:20:25;;;;;;;26.30;21.52;;;8.00;99.90;;;;;;5083257;28;20040;-74
2022/09/28 04:22:51;;;;;;;36.92;23.65;;;8.00;99.90;;;;;;5087486;28;20066;-73
2022/09/28 04:25:17;;;;;;;27.02;21.50;;;8.00;99.90;;;;;;5087326;28;20127;-74
2022/09/28 04:30:27;;;;;;;29.75;21.77;;;8.10;99.90;;;;;;5088308;28;20048;-74
2022/09/28 04:32:53;;;;;;;30.02;22.48;;;8.00;99.90;;;;;;5082113;28;20054;-73
2022/09/28 04:35:19;;;;;;;30.42;23.50;;;;;;;;;;5085226;28;20061;-74
2022/09/28 04:37:45;;;;;;;36.90;24.10;;;8.00;99.90;;;;;;5087478;28;20467;-74
2022/09/28 04:40:10;;;;;;;35.83;23.92;;;8.10;99.90;;;;;;5083233;28;20056;-74
2022/09/28 04:42:36;;;;;;;37.72;24.70;;;8.10;99.90;;;;;;5051424;28;20071;-75
2022/09/28 04:45:03;;;;;;;35.13;25.17;;;8.10;99.90;;;;;;5065581;28;20051;-74
2022/09/28 04:47:29;;;;;;;41.40;24.15;;;8.10;99.90;;;;;;5065015;28;20040;-75
2022/09/28 04:49:55;;;;;;;36.45;23.58;;;8.10;99.90;;;;;;5067796;28;20625;-74
2022/09/28 04:52:20;;;;;;;38.45;24.90;;;8.10;99.90;;;;;;5048705;28;20101;-74
2022/09/28 04:54:46;;;;;;;38.28;25.05;;;8.10;99.90;;;;;;5063400;28;20052;-75
2022/09/28 04:57:12;;;;;;;42.00;24.45;;;8.00;99.90;;;;;;5061922;28;20040;-74
2022/09/28 04:59:37;;;;;;;45.53;24.45;;;8.10;99.90;;;;;;5064328;28;20162;-75
2022/09/28 05:02:04;;;;;;;50.75;23.35;;;8.10;99.90;;;;;;5063090;28;20041;-72
2022/09/28 05:04:29;;;;;;;76.85;22.67;;;8.00;99.90;;;;;;5066136;28;20046;-72
2022/09/28 05:06:56;;;;;;;133.88;23.42;;;8.00;99.90;;;;;;5070245;28;20135;-72
2022/09/28 05:09:22;;;;;;;76.30;22.13;;;7.90;99.90;;;;;;5065085;28;20094;-73
2022/09/28 05:11:51;;;;;;;55.92;22.00;;;7.90;99.90;;;;;;5069354;28;20488;-71
2022/09/28 05:14:20;;;;;;;71.72;22.98;;;7.90;99.90;;;;;;5064356;28;20053;-73
2022/09/28 05:16:46;;;;;;;73.60;23.10;;;7.90;99.90;;;;;;5064711;28;20053;-74
2022/09/28 05:19:12;;;;;;;50.50;22.60;;;7.90;99.90;;;;;;5066623;28;20037;-75
2022/09/28 05:21:37;;;;;;;44.80;22.33;;;7.90;99.90;;;;;;5066419;28;20112;-74
2022/09/28 05:24:06;;;;;;;74.38;21.58;;;7.90;99.90;;;;;;5066757;28;20036;-74
2022/09/28 05:26:33;;;;;;;62.05;21.63;;;7.90;99.90;;;;;;5064800;28;20048;-73
2022/09/28 05:28:58;;;;;;;44.35;21.17;;;7.90;99.90;;;;;;5059907;28;20462;-73
2022/09/28 05:31:26;;;;;;;47.80;20.80;;;7.90;99.90;;;;;;5060735;28;20124;-74
2022/09/28 05:33:52;;;;;;;58.63;22.15;;;7.90;99.90;;;;;;5065858;28;20076;-74
2022/09/28 05:36:19;;;;;;;53.92;20.73;;;7.90;99.90;;;;;;5062418;28;20049;-73
2022/09/28 05:38:45;;;;;;;35.78;19.08;;;7.90;99.90;;;;;;5064089;28;20036;-72
2022/09/28 05:41:11;;;;;;;56.30;21.30;;;7.90;99.90;;;;;;5062222;28;20052;-73
2022/09/28 05:43:37;;;;;;;59.60;20.27;;;7.90;99.90;;;;;;5077312;28;20052;-72
2022/09/28 05:46:03;;;;;;;87.68;20.95;;;7.90;99.90;;;;;;5079846;28;20048;-71
2022/09/28 05:48:29;;;;;;;72.60;21.13;;;7.90;99.90;;;;;;5084034;28;20051;-69
2022/09/28 05:50:57;;;;;;;67.18;19.30;;;7.90;99.90;;;;;;5082888;28;20041;-71
2022/09/28 05:53:23;;;;;;;106.13;20.13;;;7.90;99.90;;;;;;5066448;28;20043;-71
2022/09/28 05:55:49;;;;;;;117.40;21.25;;;7.90;99.90;;;;;;5082624;28;20052;-72
2022/09/28 05:58:15;;;;;;;190.05;21.15;;;7.90;99.90;;;;;;5083775;28;20074;-70
2022/09/28 06:00:41;;;;;;;91.43;19.02;;;7.80;99.90;;;;;;5085013;28;20028;-77
2022/09/28 06:03:11;;;;;;;69.10;19.63;;;7.80;99.90;;;;;;5085167;28;20511;-70
2022/09/28 06:05:38;;;;;;;103.47;20.20;;;7.80;99.90;;;;;;5064646;28;20039;-70
2022/09/28 06:08:07;;;;;;;71.45;18.60;;;7.80;99.90;;;;;;5078844;28;20044;-70
2022/09/28 06:10:33;;;;;;;97.78;20.08;;;7.80;99.90;;;;;;5076452;28;20115;-70
2022/09/28 06:12:59;;;;;;;92.53;20.27;;;7.80;99.90;;;;;;5080211;28;20166;-70
2022/09/28 06:15:28;;;;;;;99.30;20.63;;;7.90;99.90;;;;;;5082698;28;20145;-70
2022/09/28 06:17:56;;;;;;;176.35;22.80;;;7.90;99.90;;;;;;5082929;28;20426;-70
2022/09/28 06:20:22;;;;;;;138.38;21.00;;;7.90;99.90;;;;;;5083539;28;20043;-70
2022/09/28 06:22:52;;;;;;;66.45;21.10;;;7.80;99.90;;;;;;5088370;28;20036;-69
2022/09/28 06:25:18;;;;;;;114.40;21.60;;;7.90;99.90;;;;;;5086521;28;20114;-70
2022/09/28 06:27:59;;;;;;;67.05;21.23;;;7.80;99.90;;;;;;5088657;28;20399;-70
2022/09/28 06:30:27;;;;;;;99.75;21.10;;;7.80;99.90;;;;;;5089686;28;20044;-69
2022/09/28 06:32:56;;;;;;;111.22;20.27;;;7.90;99.90;;;;;;5082344;28;20044;-69
2022/09/28 06:35:24;;;;;;;86.80;19.05;;;7.90;99.90;;;;;;5084599;28;20044;-71
2022/09/28 06:37:50;;;;;;;70.45;18.10;;;7.90;99.90;;;;;;5055054;28;20497;-70
2022/09/28 06:40:17;;;;;;;66.60;17.77;;;7.80;99.90;;;;;;5090621;28;20046;-70
2022/09/28 06:42:43;;;;;;;77.13;17.17;;;7.80;99.90;;;;;;5086979;28;20506;-70
2022/09/28 06:45:09;;;;;;;139.95;20.52;;;7.80;99.90;;;;;;5064558;28;20044;-71
2022/09/28 06:47:36;;;;;;;105.82;19.33;;;7.90;99.90;;;;;;5087251;28;20075;-70
2022/09/28 06:50:09;;;;;;;90.28;19.10;;;7.90;99.90;;;;;;5091152;28;20038;-70
2022/09/28 06:52:35;;;;;;;61.88;18.48;;;7.90;99.90;;;;;;5092111;28;20495;-71
2022/09/28 06:55:01;;;;;;;58.47;18.83;;;8.10;99.90;;;;;;5087545;28;20051;-72
2022/09/28 06:57:26;;;;;;;48.55;19.70;;;8.10;99.90;;;;;;5091702;28;20115;-71
2022/09/28 06:59:52;;;;;;;58.45;19.92;;;8.30;99.90;;;;;;5087280;28;20036;-71
2022/09/28 07:02:19;;;;;;;50.38;18.95;;;8.30;99.90;;;;;;5069142;28;20565;-70
2022/09/28 07:04:44;;;;;;;54.50;17.98;;;8.40;99.90;;;;;;5092087;28;20134;-71
2022/09/28 07:07:10;;;;;;;40.22;16.92;;;8.50;99.90;;;;;;5073451;28;20119;-72
2022/09/28 07:09:36;;;;;;;47.72;17.65;;;8.50;99.90;;;;;;5088012;28;20509;-70
2022/09/28 07:12:09;;;;;;;303.85;46.30;;;8.50;99.90;;;;;;5089773;28;20273;-71
2022/09/28 07:14:34;;;;;;;48.85;17.73;;;8.60;99.90;;;;;;5069658;28;20040;-70
2022/09/28 07:17:01;;;;;;;60.47;16.88;;;8.60;99.90;;;;;;5071860;28;20045;-71
2022/09/28 07:19:26;;;;;;;38.10;14.85;;;8.70;99.90;;;;;;5087636;28;20044;-70
2022/09/28 07:21:52;;;;;;;42.50;17.13;;;8.50;99.90;;;;;;5073366;28;20132;-71
2022/09/28 07:24:18;;;;;;;37.17;17.40;;;8.70;99.90;;;;;;5087743;28;20040;-70
2022/09/28 07:26:44;;;;;;;58.80;19.27;;;8.80;99.90;;;;;;5090693;28;20479;-71
2022/09/28 07:29:11;;;;;;;34.85;17.98;;;8.80;99.90;;;;;;5090396;28;20086;-71
2022/09/28 07:31:38;;;;;;;31.08;18.25;;;8.90;99.90;;;;;;5074335;28;20053;-71
2022/09/28 07:34:04;;;;;;;55.65;17.33;;;9.00;99.90;;;;;;5090115;28;20126;-70
2022/09/28 07:36:33;;;;;;;32.63;17.95;;;8.90;99.90;;;;;;5085953;28;20442;-71
2022/09/28 07:39:02;;;;;;;24.75;17.48;;;9.00;99.90;;;;;;5090654;28;20055;-71
2022/09/28 07:41:31;;;;;;;23.75;15.70;;;9.10;99.90;;;;;;5070904;28;20044;-71
2022/09/28 07:44:04;;;;;;;34.85;17.35;;;9.20;99.90;;;;;;5056373;28;20040;-71
2022/09/28 07:46:31;;;;;;;27.98;17.10;;;;;;;;;;5090749;28;20445;-71
2022/09/28 07:48:57;;;;;;;22.23;16.50;;;9.40;99.90;;;;;;5072583;28;20032;-70
2022/09/28 07:51:22;;;;;;;18.23;15.25;;;9.50;99.90;;;;;;5090709;28;20028;-70
2022/09/28 07:53:48;;;;;;;16.85;13.80;;;9.60;99.90;;;;;;5074182;28;20109;-71
2022/09/28 07:56:16;;;;;;;16.35;14.20;;;9.60;99.90;;;;;;5083024;28;20410;-71
2022/09/28 07:58:42;;;;;;;;;;;9.60;99.90;;;;;;5090385;28;20063;-71
2022/09/28 08:01:10;;;;;;;17.80;13.70;;;9.70;99.90;;;;;;5088548;28;19924;-70
2022/09/28 08:03:37;;;;;;;;;;;9.90;99.90;;;;;;5084902;28;20379;-71
2022/09/28 08:06:05;;;;;;;16.58;13.15;;;10.10;99.90;;;;;;5088431;28;19974;-70
2022/09/28 08:08:34;;;;;;;17.88;14.32;;;;;;;;;;5087357;28;20064;-71
2022/09/28 08:11:00;;;;;;;18.05;15.13;;;10.20;99.90;;;;;;5070443;28;20433;-71
2022/09/28 08:13:26;;;;;;;17.33;14.68;;;10.20;99.90;;;;;;5085943;28;20046;-71
2022/09/28 08:16:00;;;;;;;18.73;15.52;;;10.20;99.90;;;;;;5069822;28;20479;-71
2022/09/28 08:18:25;;;;;;;17.10;14.75;;;10.20;99.90;;;;;;5087836;28;20043;-71
2022/09/28 08:23:37;;;;;;;14.98;12.20;;;10.60;99.90;;;;;;5067184;28;20471;-71
2022/09/28 08:26:03;;;;;;;13.63;11.57;;;10.70;99.90;;;;;;5088742;28;20379;-71
2022/09/28 08:28:29;;;;;;;15.13;12.35;;;10.70;99.90;;;;;;5087345;28;20793;-70
2022/09/28 08:30:57;;;;;;;14.27;12.55;;;10.80;99.90;;;;;;5089306;28;20047;-71
2022/09/28 08:33:23;;;;;;;14.85;12.68;;;10.90;99.90;;;;;;5087868;28;20040;-72
2022/09/28 08:35:56;;;;;;;18.08;12.55;;;11.10;99.90;;;;;;5085242;28;20050;-71
2022/09/28 08:38:23;;;;;;;16.42;13.57;;;11.00;99.90;;;;;;5084492;28;20107;-71
2022/09/28 08:41:04;;;;;;;15.95;11.65;;;11.20;99.90;;;;;;5086267;28;20055;-71
2022/09/28 08:43:42;;;;;;;12.85;11.45;;;11.40;99.90;;;;;;5068951;28;20060;-70
2022/09/28 08:46:11;;;;;;;15.43;12.68;;;11.40;99.90;;;;;;5082876;28;20048;-70
2022/09/28 08:48:53;;;;;;;16.98;12.80;;;11.40;99.90;;;;;;5086332;28;20114;-71
2022/09/28 08:51:40;;;;;;;16.00;12.93;;;11.60;99.90;;;;;;5078849;28;20123;-71
2022/09/28 08:54:38;;;;;;;13.57;11.90;;;11.90;99.90;;;;;;5089691;28;20036;-70
2022/09/28 08:57:11;;;;;;;13.98;12.40;;;11.90;99.90;;;;;;4987862;28;20049;-70
2022/09/28 08:59:42;;;;;;;12.50;10.43;;;12.00;99.90;;;;;;5005908;28;20140;-70
2022/09/28 09:02:34;;;;;;;11.25;10.05;;;12.10;99.90;;;;;;5005596;28;20139;-70
2022/09/28 09:05:03;;;;;;;13.25;10.52;;;12.20;99.90;;;;;;5006893;28;20433;-71
2022/09/28 09:07:54;;;;;;;12.35;10.60;;;12.20;99.90;;;;;;5007145;28;20049;-70
2022/09/28 09:10:46;;;;;;;14.43;11.23;;;12.40;99.90;;;;;;5010364;28;20448;-70
2022/09/28 09:13:35;;;;;;;11.73;9.65;;;12.30;99.90;;;;;;5011257;28;20077;-70
2022/09/28 09:16:01;;;;;;;11.80;10.13;;;12.30;99.90;;;;;;5010352;28;20042;-70
2022/09/28 09:18:39;;;;;;;11.07;9.88;;;12.40;99.90;;;;;;5009608;28;20056;-70
2022/09/28 09:21:19;;;;;;;;;;;12.50;99.90;;;;;;5010224;28;20050;-70
2022/09/28 09:24:10;;;;;;;12.88;9.85;;;12.50;99.90;;;;;;4979196;28;20388;-70
2022/09/28 09:26:38;;;;;;;12.10;10.13;;;12.60;99.90;;;;;;4979447;28;20061;-75
2022/09/28 09:29:06;;;;;;;10.93;9.82;;;12.70;99.90;;;;;;5010322;28;20093;-73
2022/09/28 09:32:01;;;;;;;13.48;10.18;;;12.90;99.90;;;;;;5016569;28;20095;-72
2022/09/28 09:34:30;;;;;;;11.18;9.65;;;13.00;99.90;;;;;;5087372;28;20047;-72
2022/09/28 09:37:20;;;;;;;11.00;9.60;;;13.10;99.90;;;;;;5075761;28;20068;-71
2022/09/28 09:40:21;;;;;;;11.55;9.52;;;13.20;99.90;;;;;;5070153;28;20052;-72
2022/09/28 09:43:26;;;;;;;11.05;9.93;;;13.40;99.90;;;;;;5087879;28;20783;-74
2022/09/28 09:46:18;;;;;;;11.65;9.35;;;13.50;99.90;;;;;;5070519;28;20036;-73
2022/09/28 09:48:54;;;;;;;10.63;9.52;;;13.50;99.90;;;;;;5079834;28;20044;-71
2022/09/28 09:51:41;;;;;;;10.82;9.18;;;13.50;99.90;;;;;;5083421;28;20090;-73
2022/09/28 09:54:25;;;;;;;10.40;9.40;;;13.90;99.90;;;;;;5085385;28;20040;-73
2022/09/28 09:56:57;;;;;;;9.85;8.85;;;13.70;99.90;;;;;;5081968;28;20087;-70
2022/09/28 09:59:32;;;;;;;9.73;8.57;;;13.80;99.90;;;;;;5076580;28;20109;-71
2022/09/28 10:02:20;;;;;;;9.82;8.48;;;14.00;99.90;;;;;;5088350;28;20036;-69
2022/09/28 10:04:49;;;;;;;11.07;9.07;;;14.00;99.90;;;;;;5064791;28;20040;-72
2022/09/28 10:07:48;;;;;;;10.38;9.38;;;14.00;99.90;;;;;;5083379;28;20473;-68
2022/09/28 10:10:24;;;;;;;11.77;9.55;;;14.00;99.90;;;;;;5045895;28;20052;-68
2022/09/28 10:12:51;;;;;;;10.32;9.25;;;13.90;99.90;;;;;;5052394;28;20051;-70
2022/09/28 10:15:29;;;;;;;11.93;8.98;;;13.90;99.90;;;;;;5084115;28;20040;-70
2022/09/28 10:17:58;;;;;;;10.32;9.10;;;13.80;99.90;;;;;;5085303;28;20090;-74
2022/09/28 10:20:24;;;;;;;9.73;8.38;;;13.80;99.90;;;;;;5087208;28;20107;-70
2022/09/28 10:22:51;;;;;;;10.38;8.75;;;14.00;99.90;;;;;;5078803;28;20048;-70
2022/09/28 10:25:18;;;;;;;9.13;8.18;;;14.20;99.90;;;;;;5083085;28;20046;-69
2022/09/28 10:27:49;;;;;;;8.75;7.95;;;14.20;99.90;;;;;;5048168;28;20399;-70
2022/09/28 10:30:19;;;;;;;8.35;7.50;;;14.20;99.90;;;;;;5083396;28;20157;-70
2022/09/28 10:32:47;;;;;;;12.13;8.63;;;14.30;99.90;;;;;;5083023;28;20048;-71
2022/09/28 10:35:26;;;;;;;8.27;7.03;;;14.20;99.90;;;;;;5083357;28;20548;-70
2022/09/28 10:38:03;;;;;;;8.15;6.63;;;14.20;99.90;;;;;;5067289;28;20406;-71
2022/09/28 10:40:38;;;;;;;7.53;6.83;;;14.30;99.90;;;;;;5083859;28;20051;-71
2022/09/28 10:43:25;;;;;;;7.22;6.53;;;14.50;99.90;;;;;;5065424;28;20414;-71
2022/09/28 10:46:05;;;;;;;7.97;6.07;;;14.40;99.90;;;;;;5066144;28;20041;-71
2022/09/28 10:48:50;;;;;;;6.90;6.20;;;14.40;99.90;;;;;;5086501;28;20036;-70
2022/09/28 10:51:16;;;;;;;6.75;6.07;;;14.50;99.90;;;;;;5081947;28;20048;-71
2022/09/28 10:54:00;;;;;;;6.50;5.90;;;14.70;99.90;;;;;;5079137;28;20051;-71
2022/09/28 10:56:35;;;;;;;22.17;7.85;;;14.90;99.90;;;;;;5082576;28;20044;-70
2022/09/28 10:59:21;;;;;;;31.60;9.13;;;14.90;99.90;;;;;;5064685;28;20044;-72
2022/09/28 11:01:46;;;;;;;7.47;5.78;;;15.00;99.90;;;;;;5081016;28;20396;-71
2022/09/28 11:04:20;;;;;;;6.82;5.72;;;15.10;99.90;;;;;;5068593;28;20141;-71
2022/09/28 11:06:46;;;;;;;6.60;5.97;;;15.10;99.90;;;;;;5084324;28;20032;-69
2022/09/28 11:09:28;;;;;;;5.35;4.85;;;15.10;99.90;;;;;;5087871;28;20403;-69
2022/09/28 11:11:54;;;;;;;6.05;5.38;;;;;;;;;;5069996;28;20044;-70
2022/09/28 11:14:34;;;;;;;5.35;4.85;;;15.70;99.90;;;;;;5087397;28;20085;-70
2022/09/28 11:17:39;;;;;;;5.38;4.68;;;15.90;99.90;;;;;;5087489;28;20040;-69
2022/09/28 11:20:23;;;;;;;5.13;4.47;;;15.60;99.90;;;;;;5044364;28;20097;-71
2022/09/28 11:22:50;;;;;;;4.05;3.58;;;15.60;99.90;;;;;;5087790;28;20115;-69
2022/09/28 11:25:22;;;;;;;4.57;3.85;;;15.60;99.90;;;;;;5090849;28;20048;-70
2022/09/28 11:27:51;;;;;;;3.88;3.53;;;15.60;99.90;;;;;;5087168;28;20032;-70
2022/09/28 11:30:27;;;;;;;4.55;4.15;;;15.50;99.90;;;;;;5089471;28;20044;-70
2022/09/28 11:32:59;;;;;;;4.30;3.90;;;15.50;99.90;;;;;;5069814;28;20089;-70
2022/09/28 11:35:42;;;;;;;3.88;3.58;;;15.80;99.90;;;;;;5092317;28;20040;-70
2022/09/28 11:38:17;;;;;;;3.72;2.95;;;16.10;99.90;;;;;;5087889;28;20051;-69
2022/09/28 11:41:01;;;;;;;3.25;2.85;;;16.00;99.90;;;;;;5094457;28;20044;-70
2022/09/28 11:43:45;;;;;;;3.53;2.53;;;16.20;99.90;;;;;;5092466;28;20186;-70
2022/09/28 11:46:11;;;;;;;2.75;2.55;;;16.50;99.90;;;;;;5087730;28;20056;-71
2022/09/28 11:48:52;;;;;;;3.40;2.10;;;16.40;99.90;;;;;;5087482;28;20405;-71
2022/09/28 11:51:23;;;;;;;4.30;1.77;;;16.50;99.90;;;;;;5089440;28;20040;-70
2022/09/28 11:53:57;;;;;;;2.88;2.08;;;16.40;99.90;;;;;;5090608;28;20210;-72
2022/09/28 11:56:49;;;;;;;5.75;1.98;;;16.20;99.90;;;;;;5085052;28;20043;-72
2022/09/28 11:59:38;;;;;;;2.30;1.80;;;16.20;99.90;;;;;;5088644;28;21434;-73
2022/09/28 12:02:23;;;;;;;2.47;1.92;;;16.10;99.90;;;;;;5087319;28;20059;-70
2022/09/28 12:04:55;;;;;;;3.80;1.50;;;16.10;99.90;;;;;;5085188;28;20058;-71
2022/09/28 12:07:36;;;;;;;1.90;1.50;;;16.10;99.90;;;;;;5087379;28;20043;-72
2022/09/28 12:10:07;;;;;;;1.30;1.20;;;16.10;99.90;;;;;;5088003;28;20059;-72
2022/09/28 12:12:37;;;;;;;0.98;0.98;;;16.20;99.90;;;;;;5085393;28;20040;-72
2022/09/28 12:15:15;;;;;;;1.67;1.50;;;16.20;99.90;;;;;;5087614;28;20051;-72
2022/09/28 12:18:02;;;;;;;4.20;1.50;;;16.20;99.90;;;;;;5065847;28;20051;-71
2022/09/28 12:20:51;;;;;;;1.58;1.33;;;16.20;99.90;;;;;;5087654;28;20044;-73
2022/09/28 12:23:34;;;;;;;2.38;1.40;;;16.10;99.90;;;;;;5086549;28;20083;-73
2022/09/28 12:26:25;;;;;;;1.73;1.30;;;15.90;99.90;;;;;;5086157;28;20617;-73
2022/09/28 12:28:56;;;;;;;2.05;1.30;;;15.60;99.90;;;;;;5085592;28;20040;-73
2022/09/28 12:32:03;;;;;;;3.40;1.20;;;15.50;99.90;;;;;;5094184;28;20040;-73
2022/09/28 12:34:28;;;;;;;1.30;1.05;;;15.50;99.90;;;;;;5094643;28;20056;-73
2022/09/28 12:37:25;;;;;;;1.10;1.00;;;15.50;99.90;;;;;;5092762;28;20105;-73
2022/09/28 12:39:54;;;;;;;3.25;1.20;;;15.80;99.90;;;;;;5087640;28;20520;-73
2022/09/28 12:43:02;;;;;;;1.73;1.08;;;16.00;99.90;;;;;;5091431;28;20051;-73
2022/09/28 12:46:08;;;;;;;2.55;1.10;;;16.40;99.90;;;;;;4986923;28;20047;-74
2022/09/28 12:48:53;;;;;;;1.98;1.20;;;16.70;99.90;;;;;;4984886;28;20054;-74
2022/09/28 12:51:24;;;;;;;2.00;1.20;;;17.00;99.90;;;;;;4987474;28;20132;-74
2022/09/28 12:54:17;;;;;;;3.15;1.10;;;17.20;99.90;;;;;;4988486;28;20053;-73
2022/09/28 12:57:24;;;;;;;2.10;1.00;;;16.90;99.90;;;;;;4985375;28;20051;-74
2022/09/28 13:00:05;;;;;;;1.08;1.00;;;16.80;99.90;;;;;;4951431;28;20136;-73
2022/09/28 13:02:58;;;;;;;1.35;1.15;;;16.70;99.90;;;;;;4933633;29;20051;-73
2022/09/28 13:05:27;;;;;;;2.05;1.02;;;16.50;99.90;;;;;;4946883;28;20526;-74
2022/09/28 13:08:20;;;;;;;2.85;1.17;;;16.60;99.90;;;;;;4946475;28;20146;-73
2022/09/28 13:11:17;;;;;;;1.10;1.10;;;16.50;99.90;;;;;;4951314;29;20055;-73
2022/09/28 13:13:48;;;;;;;1.27;1.13;;;16.30;99.90;;;;;;4950864;29;20054;-73
2022/09/28 13:16:33;;;;;;;1.83;1.30;;;16.10;99.90;;;;;;4948351;28;20056;-74
2022/09/28 13:19:35;;;;;;;2.17;1.38;;;16.00;99.90;;;;;;4949084;28;20053;-73
2022/09/28 13:22:51;;;;;;;2.50;1.20;;;15.70;99.90;;;;;;4968300;28;20054;-74